PWSweather.com
Personal Weather Stations
Station Observations
OINOFYTA
Oinofyta Greece, OinofytaGR 320 11

Oinofyta GreeceOinofytaGR 320 11

Lat: 38.3080648, Lon: 23.6391172

Elevation: 354

Station Type: ProWeatherStation 1080

http://oinofytaweather.gr/

High Low Average
Temperature 59.4°F15.2°C 33.4°F0.8°C 46.2°F7.9°C
Dew Point 50.8°F10.4°C 32.2°F0.1°C 42.5°F5.8°C
Winds 4.4 mph 7.1 kmh Calm Calm 1.0 mph S1.6 kmh S
Wind Gusts 8.3 mph13.4 kmh -- 3.0 mph4.8 kmh
Humidity 95% 66% 88%
Pressure 30.20 in1022.7 mb 30.06 in1017.9 mb -
Precipitation 0.00 in0.0 mm - -
Hour Temp Dew Point Humidity Winds Wind Gusts Pressure Precip Precip Rate Daily Precip Total
12:00 AM 39.0°F3.9°C 37.7°F3.2°C 95% 0.3 mph SW0.5 kmh SW 2.2 mph3.5 kmh 30.06 in1017.9 mb 0.00 in0.0 mm 0.00 in0.0 mm 0.00 in0.0 mm
12:05 AM 38.7°F3.7°C 37.4°F3.0°C 95% Calm Calm 0.7 mph1.1 kmh 30.06 in1017.9 mb 0.00 in0.0 mm 0.00 in0.0 mm 0.00 in0.0 mm
12:10 AM 38.7°F3.7°C 37.4°F3.0°C 95% 0.1 mph NNW0.2 kmh NNW 1.6 mph2.6 kmh 30.06 in1017.9 mb 0.00 in0.0 mm 0.00 in0.0 mm 0.00 in0.0 mm
12:15 AM 38.7°F3.7°C 37.4°F3.0°C 95% 0.4 mph W0.6 kmh W 2.2 mph3.5 kmh 30.06 in1017.9 mb 0.00 in0.0 mm 0.00 in0.0 mm 0.00 in0.0 mm
12:20 AM 39.4°F4.1°C 38.1°F3.4°C 95% 0.7 mph SW1.1 kmh SW 2.2 mph3.5 kmh 30.06 in1017.9 mb 0.00 in0.0 mm 0.00 in0.0 mm 0.00 in0.0 mm
12:25 AM 39.4°F4.1°C 38.1°F3.4°C 95% 0.4 mph SW0.6 kmh SW 2.2 mph3.5 kmh 30.06 in1017.9 mb 0.00 in0.0 mm 0.00 in0.0 mm 0.00 in0.0 mm
12:30 AM 39.2°F4.0°C 37.9°F3.3°C 95% Calm Calm 0.7 mph1.1 kmh 30.07 in1018.3 mb 0.00 in0.0 mm 0.00 in0.0 mm 0.00 in0.0 mm
12:35 AM 39.4°F4.1°C 38.1°F3.4°C 95% 0.3 mph SW0.5 kmh SW 2.2 mph3.5 kmh 30.07 in1018.3 mb 0.00 in0.0 mm 0.00 in0.0 mm 0.00 in0.0 mm
12:40 AM 39.9°F4.4°C 38.6°F3.7°C 95% 0.5 mph SW0.8 kmh SW 2.2 mph3.5 kmh 30.06 in1017.9 mb 0.00 in0.0 mm 0.00 in0.0 mm 0.00 in0.0 mm
12:45 AM 39.7°F4.3°C 38.4°F3.6°C 95% 0.2 mph W0.3 kmh W 2.2 mph3.5 kmh 30.06 in1017.9 mb 0.00 in0.0 mm 0.00 in0.0 mm 0.00 in0.0 mm
12:50 AM 39.6°F4.2°C 38.3°F3.5°C 95% 0.1 mph N0.2 kmh N 2.2 mph3.5 kmh 30.06 in1017.9 mb 0.00 in0.0 mm 0.00 in0.0 mm 0.00 in0.0 mm
12:55 AM 38.7°F3.7°C 37.1°F2.8°C 94% 0.6 mph SE1.0 kmh SE 3.1 mph5.0 kmh 30.06 in1017.9 mb 0.00 in0.0 mm 0.00 in0.0 mm 0.00 in0.0 mm
01:00 AM 38.7°F3.7°C 37.4°F3.0°C 95% 1.0 mph SSE1.6 kmh SSE 3.1 mph5.0 kmh 30.06 in1017.9 mb 0.00 in0.0 mm 0.00 in0.0 mm 0.00 in0.0 mm
01:05 AM 39.0°F3.9°C 37.7°F3.2°C 95% 0.6 mph SSW1.0 kmh SSW 2.2 mph3.5 kmh 30.06 in1017.9 mb 0.00 in0.0 mm 0.00 in0.0 mm 0.00 in0.0 mm
01:10 AM 37.9°F3.3°C 36.6°F2.6°C 95% 0.3 mph S0.5 kmh S 2.2 mph3.5 kmh 30.07 in1018.3 mb 0.00 in0.0 mm 0.00 in0.0 mm 0.00 in0.0 mm
01:15 AM 37.2°F2.9°C 35.9°F2.2°C 95% 0.1 mph ESE0.2 kmh ESE 1.6 mph2.6 kmh 30.06 in1017.9 mb 0.00 in0.0 mm 0.00 in0.0 mm 0.00 in0.0 mm
01:20 AM 37.2°F2.9°C 35.9°F2.2°C 95% Calm Calm 0.7 mph1.1 kmh 30.06 in1017.9 mb 0.00 in0.0 mm 0.00 in0.0 mm 0.00 in0.0 mm
01:25 AM 36.9°F2.7°C 35.6°F2.0°C 95% 0.2 mph WSW0.3 kmh WSW 1.6 mph2.6 kmh 30.06 in1017.9 mb 0.00 in0.0 mm 0.00 in0.0 mm 0.00 in0.0 mm
01:30 AM 36.7°F2.6°C 35.4°F1.9°C 95% 0.5 mph W0.8 kmh W 2.2 mph3.5 kmh 30.06 in1017.9 mb 0.00 in0.0 mm 0.00 in0.0 mm 0.00 in0.0 mm
01:35 AM 36.9°F2.7°C 35.6°F2.0°C 95% 0.6 mph WNW1.0 kmh WNW 2.2 mph3.5 kmh 30.06 in1017.9 mb 0.00 in0.0 mm 0.00 in0.0 mm 0.00 in0.0 mm
01:40 AM 37.2°F2.9°C 35.9°F2.2°C 95% 0.4 mph WNW0.6 kmh WNW 3.8 mph6.1 kmh 30.06 in1017.9 mb 0.00 in0.0 mm 0.00 in0.0 mm 0.00 in0.0 mm
01:45 AM 38.1°F3.4°C 36.8°F2.7°C 95% 1.2 mph SW1.9 kmh SW 3.8 mph6.1 kmh 30.06 in1017.9 mb 0.00 in0.0 mm 0.00 in0.0 mm 0.00 in0.0 mm
01:50 AM 37.4°F3.0°C 36.1°F2.3°C 95% 2.7 mph SW4.3 kmh SW 5.4 mph8.7 kmh 30.06 in1017.9 mb 0.00 in0.0 mm 0.00 in0.0 mm 0.00 in0.0 mm
01:55 AM 36.9°F2.7°C 35.6°F2.0°C 95% 3.5 mph SW5.6 kmh SW 5.4 mph8.7 kmh 30.06 in1017.9 mb 0.00 in0.0 mm 0.00 in0.0 mm 0.00 in0.0 mm
02:00 AM 36.5°F2.5°C 35.2°F1.8°C 95% 2.2 mph SW3.5 kmh SW 5.4 mph8.7 kmh 30.06 in1017.9 mb 0.00 in0.0 mm 0.00 in0.0 mm 0.00 in0.0 mm
02:05 AM 36.5°F2.5°C 35.2°F1.8°C 95% 0.4 mph SSW0.6 kmh SSW 3.8 mph6.1 kmh 30.06 in1017.9 mb 0.00 in0.0 mm 0.00 in0.0 mm 0.00 in0.0 mm
02:10 AM 36.7°F2.6°C 35.4°F1.9°C 95% 0.2 mph SW0.3 kmh SW 2.2 mph3.5 kmh 30.06 in1017.9 mb 0.00 in0.0 mm 0.00 in0.0 mm 0.00 in0.0 mm
02:15 AM 37.0°F2.8°C 35.7°F2.1°C 95% 1.0 mph SW1.6 kmh SW 3.1 mph5.0 kmh 30.06 in1017.9 mb 0.00 in0.0 mm 0.00 in0.0 mm 0.00 in0.0 mm
02:20 AM 37.2°F2.9°C 35.9°F2.2°C 95% 1.8 mph SW2.9 kmh SW 3.8 mph6.1 kmh 30.07 in1018.3 mb 0.00 in0.0 mm 0.00 in0.0 mm 0.00 in0.0 mm
02:25 AM 37.2°F2.9°C 35.9°F2.2°C 95% 1.3 mph SW2.1 kmh SW 3.8 mph6.1 kmh 30.07 in1018.3 mb 0.00 in0.0 mm 0.00 in0.0 mm 0.00 in0.0 mm
02:30 AM 37.2°F2.9°C 35.9°F2.2°C 95% 0.2 mph SW0.3 kmh SW 3.8 mph6.1 kmh 30.07 in1018.3 mb 0.00 in0.0 mm 0.00 in0.0 mm 0.00 in0.0 mm
02:35 AM 37.2°F2.9°C 35.9°F2.2°C 95% Calm Calm 1.6 mph2.6 kmh 30.07 in1018.3 mb 0.00 in0.0 mm 0.00 in0.0 mm 0.00 in0.0 mm
02:40 AM 37.8°F3.2°C 36.5°F2.5°C 95% 0.6 mph SW1.0 kmh SW 3.8 mph6.1 kmh 30.07 in1018.3 mb 0.00 in0.0 mm 0.00 in0.0 mm 0.00 in0.0 mm
02:45 AM 38.1°F3.4°C 36.8°F2.7°C 95% 1.6 mph SW2.6 kmh SW 4.5 mph7.2 kmh 30.07 in1018.3 mb 0.00 in0.0 mm 0.00 in0.0 mm 0.00 in0.0 mm
02:50 AM 38.1°F3.4°C 36.8°F2.7°C 95% 2.1 mph SW3.4 kmh SW 5.4 mph8.7 kmh 30.07 in1018.3 mb 0.00 in0.0 mm 0.00 in0.0 mm 0.00 in0.0 mm
02:55 AM 37.9°F3.3°C 36.6°F2.6°C 95% 1.7 mph SW2.7 kmh SW 5.4 mph8.7 kmh 30.07 in1018.3 mb 0.00 in0.0 mm 0.00 in0.0 mm 0.00 in0.0 mm
03:00 AM 37.9°F3.3°C 36.6°F2.6°C 95% 1.3 mph SW2.1 kmh SW 3.8 mph6.1 kmh 30.07 in1018.3 mb 0.00 in0.0 mm 0.00 in0.0 mm 0.00 in0.0 mm
03:05 AM 37.9°F3.3°C 36.6°F2.6°C 95% 1.6 mph SW2.6 kmh SW 3.8 mph6.1 kmh 30.07 in1018.3 mb 0.00 in0.0 mm 0.00 in0.0 mm 0.00 in0.0 mm
03:10 AM 37.8°F3.2°C 36.5°F2.5°C 95% 1.7 mph SW2.7 kmh SW 3.8 mph6.1 kmh 30.07 in1018.3 mb 0.00 in0.0 mm 0.00 in0.0 mm 0.00 in0.0 mm
03:15 AM 37.8°F3.2°C 36.5°F2.5°C 95% 0.8 mph SW1.3 kmh SW 3.8 mph6.1 kmh 30.07 in1018.3 mb 0.00 in0.0 mm 0.00 in0.0 mm 0.00 in0.0 mm
03:20 AM 37.8°F3.2°C 36.5°F2.5°C 95% 0.1 mph SW0.2 kmh SW 2.2 mph3.5 kmh 30.07 in1018.3 mb 0.00 in0.0 mm 0.00 in0.0 mm 0.00 in0.0 mm
03:25 AM 37.6°F3.1°C 36.3°F2.4°C 95% 0.1 mph WSW0.2 kmh WSW 2.2 mph3.5 kmh 30.07 in1018.3 mb 0.00 in0.0 mm 0.00 in0.0 mm 0.00 in0.0 mm
03:30 AM 37.6°F3.1°C 36.3°F2.4°C 95% 0.1 mph WSW0.2 kmh WSW 1.6 mph2.6 kmh 30.07 in1018.3 mb 0.00 in0.0 mm 0.00 in0.0 mm 0.00 in0.0 mm
03:35 AM 37.8°F3.2°C 36.5°F2.5°C 95% 0.2 mph SW0.3 kmh SW 3.1 mph5.0 kmh 30.07 in1018.3 mb 0.00 in0.0 mm 0.00 in0.0 mm 0.00 in0.0 mm
03:40 AM 37.8°F3.2°C 36.5°F2.5°C 95% 0.4 mph SW0.6 kmh SW 3.1 mph5.0 kmh 30.07 in1018.3 mb 0.00 in0.0 mm 0.00 in0.0 mm 0.00 in0.0 mm
03:45 AM 37.8°F3.2°C 36.5°F2.5°C 95% 0.5 mph SSW0.8 kmh SSW 3.1 mph5.0 kmh 30.07 in1018.3 mb 0.00 in0.0 mm 0.00 in0.0 mm 0.00 in0.0 mm
03:50 AM 37.4°F3.0°C 36.1°F2.3°C 95% 0.3 mph SW0.5 kmh SW 3.1 mph5.0 kmh 30.07 in1018.3 mb 0.00 in0.0 mm 0.00 in0.0 mm 0.00 in0.0 mm
03:55 AM 37.2°F2.9°C 35.9°F2.2°C 95% Calm Calm 1.6 mph2.6 kmh 30.06 in1017.9 mb 0.00 in0.0 mm 0.00 in0.0 mm 0.00 in0.0 mm
04:00 AM 37.0°F2.8°C 35.7°F2.1°C 95% Calm Calm 0.7 mph1.1 kmh 30.06 in1017.9 mb 0.00 in0.0 mm 0.00 in0.0 mm 0.00 in0.0 mm
04:05 AM 37.4°F3.0°C 36.1°F2.3°C 95% 0.2 mph SW0.3 kmh SW 2.2 mph3.5 kmh 30.07 in1018.3 mb 0.00 in0.0 mm 0.00 in0.0 mm 0.00 in0.0 mm
04:10 AM 37.8°F3.2°C 36.5°F2.5°C 95% 0.9 mph WSW1.4 kmh WSW 3.8 mph6.1 kmh 30.07 in1018.3 mb 0.00 in0.0 mm 0.00 in0.0 mm 0.00 in0.0 mm
04:15 AM 37.9°F3.3°C 36.6°F2.6°C 95% 1.0 mph WSW1.6 kmh WSW 3.8 mph6.1 kmh 30.07 in1018.3 mb 0.00 in0.0 mm 0.00 in0.0 mm 0.00 in0.0 mm
04:20 AM 37.9°F3.3°C 36.6°F2.6°C 95% 0.3 mph SW0.5 kmh SW 3.1 mph5.0 kmh 30.07 in1018.3 mb 0.00 in0.0 mm 0.00 in0.0 mm 0.00 in0.0 mm
04:25 AM 37.9°F3.3°C 36.6°F2.6°C 95% Calm Calm 1.6 mph2.6 kmh 30.07 in1018.3 mb 0.00 in0.0 mm 0.00 in0.0 mm 0.00 in0.0 mm
04:30 AM 37.9°F3.3°C 36.6°F2.6°C 95% 0.3 mph WSW0.5 kmh WSW 2.2 mph3.5 kmh 30.07 in1018.3 mb 0.00 in0.0 mm 0.00 in0.0 mm 0.00 in0.0 mm
04:35 AM 37.9°F3.3°C 36.6°F2.6°C 95% 0.6 mph WSW1.0 kmh WSW 3.1 mph5.0 kmh 30.07 in1018.3 mb 0.00 in0.0 mm 0.00 in0.0 mm 0.00 in0.0 mm
04:40 AM 37.9°F3.3°C 36.6°F2.6°C 95% 0.3 mph WSW0.5 kmh WSW 3.1 mph5.0 kmh 30.07 in1018.3 mb 0.00 in0.0 mm 0.00 in0.0 mm 0.00 in0.0 mm
04:45 AM 37.6°F3.1°C 36.3°F2.4°C 95% Calm Calm 3.1 mph5.0 kmh 30.07 in1018.3 mb 0.00 in0.0 mm 0.00 in0.0 mm 0.00 in0.0 mm
04:50 AM 37.4°F3.0°C 36.1°F2.3°C 95% Calm Calm 0.7 mph1.1 kmh 30.07 in1018.3 mb 0.00 in0.0 mm 0.00 in0.0 mm 0.00 in0.0 mm
04:55 AM 37.6°F3.1°C 36.3°F2.4°C 95% 0.1 mph SSW0.2 kmh SSW 1.6 mph2.6 kmh 30.07 in1018.3 mb 0.00 in0.0 mm 0.00 in0.0 mm 0.00 in0.0 mm
05:00 AM 37.4°F3.0°C 36.1°F2.3°C 95% 0.2 mph SSW0.3 kmh SSW 1.6 mph2.6 kmh 30.07 in1018.3 mb 0.00 in0.0 mm 0.00 in0.0 mm 0.00 in0.0 mm
05:05 AM 37.2°F2.9°C 35.9°F2.2°C 95% 0.1 mph SSW0.2 kmh SSW 1.6 mph2.6 kmh 30.07 in1018.3 mb 0.00 in0.0 mm 0.00 in0.0 mm 0.00 in0.0 mm
05:10 AM 36.1°F2.3°C 34.9°F1.6°C 95% 0.1 mph SSW0.2 kmh SSW 1.6 mph2.6 kmh 30.07 in1018.3 mb 0.00 in0.0 mm 0.00 in0.0 mm 0.00 in0.0 mm
05:15 AM 35.4°F1.9°C 34.1°F1.2°C 95% Calm Calm -- 30.07 in1018.3 mb 0.00 in0.0 mm 0.00 in0.0 mm 0.00 in0.0 mm
05:20 AM 36.0°F2.2°C 34.7°F1.5°C 95% 0.1 mph W0.2 kmh W 2.2 mph3.5 kmh 30.07 in1018.3 mb 0.00 in0.0 mm 0.00 in0.0 mm 0.00 in0.0 mm
05:25 AM 36.5°F2.5°C 35.2°F1.8°C 95% 0.5 mph WSW0.8 kmh WSW 3.1 mph5.0 kmh 30.07 in1018.3 mb 0.00 in0.0 mm 0.00 in0.0 mm 0.00 in0.0 mm
05:30 AM 36.5°F2.5°C 35.2°F1.8°C 95% 1.0 mph SW1.6 kmh SW 3.8 mph6.1 kmh 30.07 in1018.3 mb 0.00 in0.0 mm 0.00 in0.0 mm 0.00 in0.0 mm
05:35 AM 36.1°F2.3°C 34.9°F1.6°C 95% 0.9 mph SW1.4 kmh SW 3.8 mph6.1 kmh 30.08 in1018.6 mb 0.00 in0.0 mm 0.00 in0.0 mm 0.00 in0.0 mm
05:40 AM 36.0°F2.2°C 34.7°F1.5°C 95% 0.3 mph SW0.5 kmh SW 2.2 mph3.5 kmh 30.08 in1018.6 mb 0.00 in0.0 mm 0.00 in0.0 mm 0.00 in0.0 mm
05:45 AM 36.1°F2.3°C 34.9°F1.6°C 95% Calm Calm 2.2 mph3.5 kmh 30.08 in1018.6 mb 0.00 in0.0 mm 0.00 in0.0 mm 0.00 in0.0 mm
05:50 AM 36.3°F2.4°C 35.0°F1.7°C 95% 0.2 mph SW0.3 kmh SW 3.8 mph6.1 kmh 30.08 in1018.6 mb 0.00 in0.0 mm 0.00 in0.0 mm 0.00 in0.0 mm
05:55 AM 36.3°F2.4°C 35.0°F1.7°C 95% 0.2 mph WSW0.3 kmh WSW 3.8 mph6.1 kmh 30.08 in1018.6 mb 0.00 in0.0 mm 0.00 in0.0 mm 0.00 in0.0 mm
06:00 AM 36.5°F2.5°C 35.2°F1.8°C 95% 0.2 mph SW0.3 kmh SW 3.1 mph5.0 kmh 30.09 in1019.0 mb 0.00 in0.0 mm 0.00 in0.0 mm 0.00 in0.0 mm
06:05 AM 36.7°F2.6°C 35.4°F1.9°C 95% 1.0 mph WSW1.6 kmh WSW 4.5 mph7.2 kmh 30.09 in1019.0 mb 0.00 in0.0 mm 0.00 in0.0 mm 0.00 in0.0 mm
06:10 AM 36.7°F2.6°C 35.4°F1.9°C 95% 1.2 mph W1.9 kmh W 4.5 mph7.2 kmh 30.09 in1019.0 mb 0.00 in0.0 mm 0.00 in0.0 mm 0.00 in0.0 mm
06:15 AM 36.5°F2.5°C 35.2°F1.8°C 95% 1.1 mph WSW1.8 kmh WSW 3.8 mph6.1 kmh 30.09 in1019.0 mb 0.00 in0.0 mm 0.00 in0.0 mm 0.00 in0.0 mm
06:20 AM 36.5°F2.5°C 35.2°F1.8°C 95% 0.9 mph WSW1.4 kmh WSW 3.8 mph6.1 kmh 30.09 in1019.0 mb 0.00 in0.0 mm 0.00 in0.0 mm 0.00 in0.0 mm
06:25 AM 36.5°F2.5°C 35.2°F1.8°C 95% 0.3 mph SW0.5 kmh SW 3.1 mph5.0 kmh 30.09 in1019.0 mb 0.00 in0.0 mm 0.00 in0.0 mm 0.00 in0.0 mm
06:30 AM 36.5°F2.5°C 35.2°F1.8°C 95% 0.1 mph SW0.2 kmh SW 3.1 mph5.0 kmh 30.09 in1019.0 mb 0.00 in0.0 mm 0.00 in0.0 mm 0.00 in0.0 mm
06:35 AM 36.7°F2.6°C 35.4°F1.9°C 95% 0.2 mph W0.3 kmh W 2.2 mph3.5 kmh 30.09 in1019.0 mb 0.00 in0.0 mm 0.00 in0.0 mm 0.00 in0.0 mm
06:40 AM 36.9°F2.7°C 35.6°F2.0°C 95% 0.2 mph WSW0.3 kmh WSW 2.2 mph3.5 kmh 30.09 in1019.0 mb 0.00 in0.0 mm 0.00 in0.0 mm 0.00 in0.0 mm
06:45 AM 36.9°F2.7°C 35.6°F2.0°C 95% 0.2 mph WSW0.3 kmh WSW 2.2 mph3.5 kmh 30.09 in1019.0 mb 0.00 in0.0 mm 0.00 in0.0 mm 0.00 in0.0 mm
06:50 AM 36.9°F2.7°C 35.6°F2.0°C 95% 0.1 mph W0.2 kmh W 2.2 mph3.5 kmh 30.09 in1019.0 mb 0.00 in0.0 mm 0.00 in0.0 mm 0.00 in0.0 mm
06:55 AM 36.7°F2.6°C 35.4°F1.9°C 95% Calm Calm 2.2 mph3.5 kmh 30.09 in1019.0 mb 0.00 in0.0 mm 0.00 in0.0 mm 0.00 in0.0 mm
07:00 AM 36.7°F2.6°C 35.4°F1.9°C 95% 0.2 mph SW0.3 kmh SW 2.2 mph3.5 kmh 30.09 in1019.0 mb 0.00 in0.0 mm 0.00 in0.0 mm 0.00 in0.0 mm
07:05 AM 36.7°F2.6°C 35.4°F1.9°C 95% 0.2 mph SW0.3 kmh SW 2.2 mph3.5 kmh 30.10 in1019.3 mb 0.00 in0.0 mm 0.00 in0.0 mm 0.00 in0.0 mm
07:10 AM 36.3°F2.4°C 35.0°F1.7°C 95% 0.1 mph SW0.2 kmh SW 2.2 mph3.5 kmh 30.09 in1019.0 mb 0.00 in0.0 mm 0.00 in0.0 mm 0.00 in0.0 mm
07:15 AM 35.6°F2.0°C 34.3°F1.3°C 95% Calm Calm 1.6 mph2.6 kmh 30.09 in1019.0 mb 0.00 in0.0 mm 0.00 in0.0 mm 0.00 in0.0 mm
07:20 AM 35.4°F1.9°C 34.1°F1.2°C 95% Calm Calm 1.6 mph2.6 kmh 30.09 in1019.0 mb 0.00 in0.0 mm 0.00 in0.0 mm 0.00 in0.0 mm
07:25 AM 34.7°F1.5°C 33.4°F0.8°C 95% Calm Calm 0.7 mph1.1 kmh 30.09 in1019.0 mb 0.00 in0.0 mm 0.00 in0.0 mm 0.00 in0.0 mm
07:30 AM 34.0°F1.1°C 32.7°F0.4°C 95% Calm Calm 0.7 mph1.1 kmh 30.09 in1019.0 mb 0.00 in0.0 mm 0.00 in0.0 mm 0.00 in0.0 mm
07:35 AM 33.6°F0.9°C 32.3°F0.2°C 95% Calm Calm 0.7 mph1.1 kmh 30.10 in1019.3 mb 0.00 in0.0 mm 0.00 in0.0 mm 0.00 in0.0 mm
07:40 AM 33.4°F0.8°C 32.2°F0.1°C 95% Calm Calm -- 30.10 in1019.3 mb 0.00 in0.0 mm 0.00 in0.0 mm 0.00 in0.0 mm
07:45 AM 33.6°F0.9°C 32.3°F0.2°C 95% Calm Calm 0.7 mph1.1 kmh 30.10 in1019.3 mb 0.00 in0.0 mm 0.00 in0.0 mm 0.00 in0.0 mm
07:50 AM 33.6°F0.9°C 32.3°F0.2°C 95% Calm Calm 0.7 mph1.1 kmh 30.10 in1019.3 mb 0.00 in0.0 mm 0.00 in0.0 mm 0.00 in0.0 mm
07:55 AM 33.4°F0.8°C 32.2°F0.1°C 95% Calm Calm 0.7 mph1.1 kmh 30.10 in1019.3 mb 0.00 in0.0 mm 0.00 in0.0 mm 0.00 in0.0 mm
08:00 AM 33.6°F0.9°C 32.3°F0.2°C 95% Calm Calm 0.7 mph1.1 kmh 30.10 in1019.3 mb 0.00 in0.0 mm 0.00 in0.0 mm 0.00 in0.0 mm
08:05 AM 34.5°F1.4°C 33.2°F0.7°C 95% 0.2 mph WSW0.3 kmh WSW 3.1 mph5.0 kmh 30.11 in1019.6 mb 0.00 in0.0 mm 0.00 in0.0 mm 0.00 in0.0 mm
08:10 AM 36.0°F2.2°C 34.7°F1.5°C 95% 0.4 mph WSW0.6 kmh WSW 3.1 mph5.0 kmh 30.10 in1019.3 mb 0.00 in0.0 mm 0.00 in0.0 mm 0.00 in0.0 mm
08:15 AM 36.9°F2.7°C 35.6°F2.0°C 95% 0.5 mph WSW0.8 kmh WSW 3.1 mph5.0 kmh 30.10 in1019.3 mb 0.00 in0.0 mm 0.00 in0.0 mm 0.00 in0.0 mm
08:20 AM 37.2°F2.9°C 35.9°F2.2°C 95% 1.0 mph WSW1.6 kmh WSW 3.1 mph5.0 kmh 30.10 in1019.3 mb 0.00 in0.0 mm 0.00 in0.0 mm 0.00 in0.0 mm
08:25 AM 37.6°F3.1°C 36.3°F2.4°C 95% 1.1 mph SW1.8 kmh SW 3.1 mph5.0 kmh 30.10 in1019.3 mb 0.00 in0.0 mm 0.00 in0.0 mm 0.00 in0.0 mm
08:30 AM 37.8°F3.2°C 36.5°F2.5°C 95% 0.9 mph SW1.4 kmh SW 3.1 mph5.0 kmh 30.11 in1019.6 mb 0.00 in0.0 mm 0.00 in0.0 mm 0.00 in0.0 mm
08:35 AM 37.9°F3.3°C 36.6°F2.6°C 95% 1.5 mph SW2.4 kmh SW 4.5 mph7.2 kmh 30.11 in1019.6 mb 0.00 in0.0 mm 0.00 in0.0 mm 0.00 in0.0 mm
08:40 AM 37.8°F3.2°C 36.5°F2.5°C 95% 2.1 mph SW3.4 kmh SW 4.5 mph7.2 kmh 30.11 in1019.6 mb 0.00 in0.0 mm 0.00 in0.0 mm 0.00 in0.0 mm
08:45 AM 37.8°F3.2°C 36.5°F2.5°C 95% 2.4 mph SW3.9 kmh SW 4.5 mph7.2 kmh 30.11 in1019.6 mb 0.00 in0.0 mm 0.00 in0.0 mm 0.00 in0.0 mm
08:50 AM 37.9°F3.3°C 36.6°F2.6°C 95% 2.2 mph SW3.5 kmh SW 4.5 mph7.2 kmh 30.11 in1019.6 mb 0.00 in0.0 mm 0.00 in0.0 mm 0.00 in0.0 mm
08:55 AM 38.7°F3.7°C 37.4°F3.0°C 95% 1.2 mph WSW1.9 kmh WSW 3.8 mph6.1 kmh 30.11 in1019.6 mb 0.00 in0.0 mm 0.00 in0.0 mm 0.00 in0.0 mm
09:00 AM 39.4°F4.1°C 38.1°F3.4°C 95% 0.5 mph WSW0.8 kmh WSW 2.2 mph3.5 kmh 30.11 in1019.6 mb 0.00 in0.0 mm 0.00 in0.0 mm 0.00 in0.0 mm
09:05 AM 40.1°F4.5°C 38.8°F3.8°C 95% 1.2 mph SW1.9 kmh SW 3.8 mph6.1 kmh 30.11 in1019.6 mb 0.00 in0.0 mm 0.00 in0.0 mm 0.00 in0.0 mm
09:10 AM 40.6°F4.8°C 39.3°F4.1°C 95% 2.0 mph SW3.2 kmh SW 4.5 mph7.2 kmh 30.12 in1020.0 mb 0.00 in0.0 mm 0.00 in0.0 mm 0.00 in0.0 mm
09:15 AM 40.8°F4.9°C 39.5°F4.2°C 95% 2.2 mph SW3.5 kmh SW 4.5 mph7.2 kmh 30.12 in1020.0 mb 0.00 in0.0 mm 0.00 in0.0 mm 0.00 in0.0 mm
09:20 AM 41.0°F5.0°C 39.4°F4.1°C 94% 2.3 mph SW3.7 kmh SW 4.5 mph7.2 kmh 30.13 in1020.3 mb 0.00 in0.0 mm 0.00 in0.0 mm 0.00 in0.0 mm
09:25 AM 41.5°F5.3°C 39.9°F4.4°C 94% 2.1 mph SW3.4 kmh SW 4.5 mph7.2 kmh 30.13 in1020.3 mb 0.00 in0.0 mm 0.00 in0.0 mm 0.00 in0.0 mm
09:30 AM 41.9°F5.5°C 40.0°F4.4°C 93% 1.8 mph SW2.9 kmh SW 3.8 mph6.1 kmh 30.13 in1020.3 mb 0.00 in0.0 mm 0.00 in0.0 mm 0.00 in0.0 mm
09:35 AM 42.3°F5.7°C 40.4°F4.7°C 93% 1.2 mph S1.9 kmh S 3.1 mph5.0 kmh 30.14 in1020.7 mb 0.00 in0.0 mm 0.00 in0.0 mm 0.00 in0.0 mm
09:40 AM 42.6°F5.9°C 40.5°F4.7°C 92% 0.3 mph SSE0.5 kmh SSE 3.1 mph5.0 kmh 30.14 in1020.7 mb 0.00 in0.0 mm 0.00 in0.0 mm 0.00 in0.0 mm
09:45 AM 43.2°F6.2°C 40.7°F4.8°C 91% 0.1 mph S0.2 kmh S 1.6 mph2.6 kmh 30.14 in1020.7 mb 0.00 in0.0 mm 0.00 in0.0 mm 0.00 in0.0 mm
09:50 AM 43.9°F6.6°C 41.1°F5.1°C 90% 0.1 mph S0.2 kmh S 1.6 mph2.6 kmh 30.14 in1020.7 mb 0.00 in0.0 mm 0.00 in0.0 mm 0.00 in0.0 mm
09:55 AM 44.1°F6.7°C 41.3°F5.2°C 90% 1.0 mph ESE1.6 kmh ESE 3.8 mph6.1 kmh 30.14 in1020.7 mb 0.00 in0.0 mm 0.00 in0.0 mm 0.00 in0.0 mm
10:00 AM 44.4°F6.9°C 41.7°F5.4°C 90% 1.4 mph ESE2.3 kmh ESE 3.8 mph6.1 kmh 30.14 in1020.7 mb 0.00 in0.0 mm 0.00 in0.0 mm 0.00 in0.0 mm
10:05 AM 44.8°F7.1°C 41.7°F5.4°C 89% 0.9 mph ESE1.4 kmh ESE 3.1 mph5.0 kmh 30.14 in1020.7 mb 0.00 in0.0 mm 0.00 in0.0 mm 0.00 in0.0 mm
10:10 AM 45.1°F7.3°C 42.1°F5.6°C 89% 1.2 mph ESE1.9 kmh ESE 3.8 mph6.1 kmh 30.14 in1020.7 mb 0.00 in0.0 mm 0.00 in0.0 mm 0.00 in0.0 mm
10:15 AM 45.7°F7.6°C 42.3°F5.7°C 88% 1.1 mph ESE1.8 kmh ESE 3.8 mph6.1 kmh 30.15 in1021.0 mb 0.00 in0.0 mm 0.00 in0.0 mm 0.00 in0.0 mm
10:20 AM 46.0°F7.8°C 42.4°F5.8°C 87% 0.8 mph SE1.3 kmh SE 3.1 mph5.0 kmh 30.15 in1021.0 mb 0.00 in0.0 mm 0.00 in0.0 mm 0.00 in0.0 mm
10:25 AM 46.8°F8.2°C 42.8°F6.0°C 86% 0.8 mph SE1.3 kmh SE 3.1 mph5.0 kmh 30.15 in1021.0 mb 0.00 in0.0 mm 0.00 in0.0 mm 0.00 in0.0 mm
10:30 AM 47.3°F8.5°C 43.0°F6.1°C 85% 0.6 mph SE1.0 kmh SE 2.2 mph3.5 kmh 30.15 in1021.0 mb 0.00 in0.0 mm 0.00 in0.0 mm 0.00 in0.0 mm
10:35 AM 48.0°F8.9°C 43.4°F6.3°C 84% 0.6 mph SE1.0 kmh SE 2.2 mph3.5 kmh 30.15 in1021.0 mb 0.00 in0.0 mm 0.00 in0.0 mm 0.00 in0.0 mm
10:40 AM 48.4°F9.1°C 43.1°F6.2°C 82% 0.7 mph SSE1.1 kmh SSE 2.2 mph3.5 kmh 30.15 in1021.0 mb 0.00 in0.0 mm 0.00 in0.0 mm 0.00 in0.0 mm
10:45 AM 48.9°F9.4°C 43.0°F6.1°C 80% 0.5 mph S0.8 kmh S 2.2 mph3.5 kmh 30.15 in1021.0 mb 0.00 in0.0 mm 0.00 in0.0 mm 0.00 in0.0 mm
10:50 AM 49.6°F9.8°C 43.4°F6.3°C 79% 0.5 mph S0.8 kmh S 2.2 mph3.5 kmh 30.15 in1021.0 mb 0.00 in0.0 mm 0.00 in0.0 mm 0.00 in0.0 mm
10:55 AM 50.2°F10.1°C 43.9°F6.6°C 79% 0.4 mph SSE0.6 kmh SSE 2.2 mph3.5 kmh 30.14 in1020.7 mb 0.00 in0.0 mm 0.00 in0.0 mm 0.00 in0.0 mm
11:00 AM 50.7°F10.4°C 44.1°F6.7°C 78% 0.7 mph SE1.1 kmh SE 3.8 mph6.1 kmh 30.14 in1020.7 mb 0.00 in0.0 mm 0.00 in0.0 mm 0.00 in0.0 mm
11:05 AM 51.1°F10.6°C 44.1°F6.7°C 77% 1.4 mph ESE2.3 kmh ESE 3.8 mph6.1 kmh 30.14 in1020.7 mb 0.00 in0.0 mm 0.00 in0.0 mm 0.00 in0.0 mm
11:10 AM 51.4°F10.8°C 44.5°F6.9°C 77% 1.7 mph ESE2.7 kmh ESE 3.8 mph6.1 kmh 30.14 in1020.7 mb 0.00 in0.0 mm 0.00 in0.0 mm 0.00 in0.0 mm
11:15 AM 51.8°F11.0°C 44.8°F7.1°C 77% 1.6 mph SE2.6 kmh SE 3.8 mph6.1 kmh 30.13 in1020.3 mb 0.00 in0.0 mm 0.00 in0.0 mm 0.00 in0.0 mm
11:20 AM 52.0°F11.1°C 44.7°F7.1°C 76% 1.7 mph ESE2.7 kmh ESE 3.8 mph6.1 kmh 30.13 in1020.3 mb 0.00 in0.0 mm 0.00 in0.0 mm 0.00 in0.0 mm
11:25 AM 52.3°F11.3°C 45.0°F7.2°C 76% 1.7 mph E2.7 kmh E 4.5 mph7.2 kmh 30.14 in1020.7 mb 0.00 in0.0 mm 0.00 in0.0 mm 0.00 in0.0 mm
11:30 AM 52.7°F11.5°C 45.4°F7.4°C 76% 1.4 mph ESE2.3 kmh ESE 4.5 mph7.2 kmh 30.13 in1020.3 mb 0.00 in0.0 mm 0.00 in0.0 mm 0.00 in0.0 mm
11:35 AM 53.1°F11.7°C 45.7°F7.6°C 76% 1.8 mph ESE2.9 kmh ESE 5.4 mph8.7 kmh 30.13 in1020.3 mb 0.00 in0.0 mm 0.00 in0.0 mm 0.00 in0.0 mm
11:40 AM 53.2°F11.8°C 45.5°F7.5°C 75% 2.3 mph E3.7 kmh E 5.4 mph8.7 kmh 30.13 in1020.3 mb 0.00 in0.0 mm 0.00 in0.0 mm 0.00 in0.0 mm
11:45 AM 53.4°F11.9°C 45.3°F7.4°C 74% 2.1 mph E3.4 kmh E 4.5 mph7.2 kmh 30.13 in1020.3 mb 0.00 in0.0 mm 0.00 in0.0 mm 0.00 in0.0 mm
11:50 AM 53.8°F12.1°C 45.0°F7.2°C 72% 2.0 mph ESE3.2 kmh ESE 5.4 mph8.7 kmh 30.13 in1020.3 mb 0.00 in0.0 mm 0.00 in0.0 mm 0.00 in0.0 mm
11:55 AM 55.2°F12.9°C 46.7°F8.2°C 73% 1.9 mph ESE3.1 kmh ESE 5.4 mph8.7 kmh 30.12 in1020.0 mb 0.00 in0.0 mm 0.00 in0.0 mm 0.00 in0.0 mm
12:00 PM 56.8°F13.8°C 48.3°F9.1°C 71% 1.3 mph ESE2.1 kmh ESE 4.5 mph7.2 kmh 30.12 in1020.0 mb 0.00 in0.0 mm 0.00 in0.0 mm 0.00 in0.0 mm
12:05 PM 56.8°F13.8°C 48.3°F9.1°C 71% 0.9 mph SE1.4 kmh SE 3.1 mph5.0 kmh 30.12 in1020.0 mb 0.00 in0.0 mm 0.00 in0.0 mm 0.00 in0.0 mm
12:10 PM 56.8°F13.8°C 48.3°F9.1°C 71% 0.9 mph SE1.4 kmh SE 3.1 mph5.0 kmh 30.12 in1020.0 mb 0.00 in0.0 mm 0.00 in0.0 mm 0.00 in0.0 mm
12:15 PM 57.6°F14.2°C 48.2°F9.0°C 71% 1.2 mph SE1.9 kmh SE 4.5 mph7.2 kmh 30.11 in1019.6 mb 0.00 in0.0 mm 0.00 in0.0 mm 0.00 in0.0 mm
12:20 PM 57.4°F14.1°C 48.1°F8.9°C 71% 1.6 mph SE2.6 kmh SE 5.4 mph8.7 kmh 30.11 in1019.6 mb 0.00 in0.0 mm 0.00 in0.0 mm 0.00 in0.0 mm
12:25 PM 56.7°F13.7°C 47.4°F8.6°C 71% 1.6 mph SE2.6 kmh SE 5.4 mph8.7 kmh 30.11 in1019.6 mb 0.00 in0.0 mm 0.00 in0.0 mm 0.00 in0.0 mm
12:30 PM 56.7°F13.7°C 45.8°F7.7°C 67% 0.8 mph SSE1.3 kmh SSE 5.3 mph8.5 kmh 30.11 in1019.6 mb 0.00 in0.0 mm 0.00 in0.0 mm 0.00 in0.0 mm
12:35 PM 56.7°F13.7°C 45.4°F7.4°C 66% 1.5 mph SE2.4 kmh SE 4.5 mph7.2 kmh 30.11 in1019.6 mb 0.00 in0.0 mm 0.00 in0.0 mm 0.00 in0.0 mm
12:40 PM 56.8°F13.8°C 46.4°F8.0°C 68% 1.7 mph ESE2.7 kmh ESE 4.5 mph7.2 kmh 30.11 in1019.6 mb 0.00 in0.0 mm 0.00 in0.0 mm 0.00 in0.0 mm
12:45 PM 57.0°F13.9°C 46.2°F7.9°C 67% 1.6 mph E2.6 kmh E 5.4 mph8.7 kmh 30.11 in1019.6 mb 0.00 in0.0 mm 0.00 in0.0 mm 0.00 in0.0 mm
12:50 PM 57.6°F14.2°C 46.7°F8.2°C 67% 1.7 mph E2.7 kmh E 5.4 mph8.7 kmh 30.11 in1019.6 mb 0.00 in0.0 mm 0.00 in0.0 mm 0.00 in0.0 mm
12:55 PM 57.6°F14.2°C 47.5°F8.6°C 69% 1.4 mph ESE2.3 kmh ESE 3.8 mph6.1 kmh 30.11 in1019.6 mb 0.00 in0.0 mm 0.00 in0.0 mm 0.00 in0.0 mm
01:00 PM 58.1°F14.5°C 48.4°F9.1°C 70% 1.1 mph E1.8 kmh E 3.8 mph6.1 kmh 30.10 in1019.3 mb 0.00 in0.0 mm 0.00 in0.0 mm 0.00 in0.0 mm
01:05 PM 58.3°F14.6°C 48.2°F9.0°C 69% 1.3 mph NE2.1 kmh NE 5.4 mph8.7 kmh 30.10 in1019.3 mb 0.00 in0.0 mm 0.00 in0.0 mm 0.00 in0.0 mm
01:10 PM 58.3°F14.6°C 48.2°F9.0°C 69% 1.9 mph NE3.1 kmh NE 5.4 mph8.7 kmh 30.10 in1019.3 mb 0.00 in0.0 mm 0.00 in0.0 mm 0.00 in0.0 mm
01:15 PM 58.5°F14.7°C 48.3°F9.1°C 69% 2.4 mph NE3.9 kmh NE 6.0 mph9.7 kmh 30.10 in1019.3 mb 0.00 in0.0 mm 0.00 in0.0 mm 0.00 in0.0 mm
01:20 PM 58.6°F14.8°C 48.5°F9.2°C 69% 2.7 mph NE4.3 kmh NE 6.9 mph11.1 kmh 30.10 in1019.3 mb 0.00 in0.0 mm 0.00 in0.0 mm 0.00 in0.0 mm
01:25 PM 58.3°F14.6°C 48.6°F9.2°C 70% 3.0 mph NE4.8 kmh NE 6.9 mph11.1 kmh 30.09 in1019.0 mb 0.00 in0.0 mm 0.00 in0.0 mm 0.00 in0.0 mm
01:30 PM 58.1°F14.5°C 48.4°F9.1°C 70% 3.2 mph NE5.1 kmh NE 6.9 mph11.1 kmh 30.09 in1019.0 mb 0.00 in0.0 mm 0.00 in0.0 mm 0.00 in0.0 mm
01:35 PM 58.3°F14.6°C 48.9°F9.4°C 71% 3.1 mph NE5.0 kmh NE 6.9 mph11.1 kmh 30.09 in1019.0 mb 0.00 in0.0 mm 0.00 in0.0 mm 0.00 in0.0 mm
01:40 PM 58.6°F14.8°C 48.5°F9.2°C 69% 3.1 mph NE5.0 kmh NE 7.6 mph12.2 kmh 30.09 in1019.0 mb 0.00 in0.0 mm 0.00 in0.0 mm 0.00 in0.0 mm
01:45 PM 58.6°F14.8°C 48.1°F8.9°C 68% 3.5 mph NE5.6 kmh NE 7.6 mph12.2 kmh 30.09 in1019.0 mb 0.00 in0.0 mm 0.00 in0.0 mm 0.00 in0.0 mm
01:50 PM 58.6°F14.8°C 47.3°F8.5°C 66% 3.1 mph NE5.0 kmh NE 7.6 mph12.2 kmh 30.09 in1019.0 mb 0.00 in0.0 mm 0.00 in0.0 mm 0.00 in0.0 mm
01:55 PM 58.6°F14.8°C 47.3°F8.5°C 66% 2.3 mph ENE3.7 kmh ENE 5.4 mph8.7 kmh 30.09 in1019.0 mb 0.00 in0.0 mm 0.00 in0.0 mm 0.00 in0.0 mm
02:00 PM 59.0°F15.0°C 48.5°F9.2°C 68% 1.8 mph E2.9 kmh E 5.4 mph8.7 kmh 30.09 in1019.0 mb 0.00 in0.0 mm 0.00 in0.0 mm 0.00 in0.0 mm
02:05 PM 59.0°F15.0°C 48.5°F9.2°C 68% 2.3 mph ENE3.7 kmh ENE 6.0 mph9.7 kmh 30.09 in1019.0 mb 0.00 in0.0 mm 0.00 in0.0 mm 0.00 in0.0 mm
02:10 PM 58.8°F14.9°C 48.3°F9.1°C 68% 2.5 mph ENE4.0 kmh ENE 6.0 mph9.7 kmh 30.09 in1019.0 mb 0.00 in0.0 mm 0.00 in0.0 mm 0.00 in0.0 mm
02:15 PM 59.2°F15.1°C 49.0°F9.4°C 69% 2.3 mph E3.7 kmh E 6.9 mph11.1 kmh 30.09 in1019.0 mb 0.00 in0.0 mm 0.00 in0.0 mm 0.00 in0.0 mm
02:20 PM 59.0°F15.0°C 48.9°F9.4°C 69% 2.8 mph E4.5 kmh E 6.9 mph11.1 kmh 30.09 in1019.0 mb 0.00 in0.0 mm 0.00 in0.0 mm 0.00 in0.0 mm
02:25 PM 59.0°F15.0°C 48.9°F9.4°C 69% 3.1 mph ENE5.0 kmh ENE 6.9 mph11.1 kmh 30.09 in1019.0 mb 0.00 in0.0 mm 0.00 in0.0 mm 0.00 in0.0 mm
02:30 PM 58.8°F14.9°C 48.7°F9.3°C 69% 3.4 mph ENE5.5 kmh ENE 6.9 mph11.1 kmh 30.09 in1019.0 mb 0.00 in0.0 mm 0.00 in0.0 mm 0.00 in0.0 mm
02:35 PM 58.8°F14.9°C 49.4°F9.7°C 71% 3.4 mph E5.5 kmh E 6.9 mph11.1 kmh 30.09 in1019.0 mb 0.00 in0.0 mm 0.00 in0.0 mm 0.00 in0.0 mm
02:40 PM 59.2°F15.1°C 49.8°F9.9°C 71% 3.1 mph ENE5.0 kmh ENE 6.9 mph11.1 kmh 30.10 in1019.3 mb 0.00 in0.0 mm 0.00 in0.0 mm 0.00 in0.0 mm
02:45 PM 59.0°F15.0°C 49.6°F9.8°C 71% 2.5 mph ENE4.0 kmh ENE 6.0 mph9.7 kmh 30.10 in1019.3 mb 0.00 in0.0 mm 0.00 in0.0 mm 0.00 in0.0 mm
02:50 PM 59.4°F15.2°C 50.0°F10.0°C 71% 2.3 mph ENE3.7 kmh ENE 6.0 mph9.7 kmh 30.10 in1019.3 mb 0.00 in0.0 mm 0.00 in0.0 mm 0.00 in0.0 mm
02:55 PM 59.2°F15.1°C 49.8°F9.9°C 71% 2.8 mph ENE4.5 kmh ENE 6.9 mph11.1 kmh 30.10 in1019.3 mb 0.00 in0.0 mm 0.00 in0.0 mm 0.00 in0.0 mm
03:00 PM 59.2°F15.1°C 49.8°F9.9°C 71% 3.5 mph ENE5.6 kmh ENE 7.6 mph12.2 kmh 30.09 in1019.0 mb 0.00 in0.0 mm 0.00 in0.0 mm 0.00 in0.0 mm
03:05 PM 59.2°F15.1°C 49.8°F9.9°C 71% 4.0 mph ENE6.4 kmh ENE 7.6 mph12.2 kmh 30.09 in1019.0 mb 0.00 in0.0 mm 0.00 in0.0 mm 0.00 in0.0 mm
03:10 PM 59.0°F15.0°C 49.6°F9.8°C 71% 4.3 mph ENE6.9 kmh ENE 8.3 mph13.4 kmh 30.09 in1019.0 mb 0.00 in0.0 mm 0.00 in0.0 mm 0.00 in0.0 mm
03:15 PM 59.0°F15.0°C 49.6°F9.8°C 71% 4.4 mph ENE7.1 kmh ENE 8.3 mph13.4 kmh 30.09 in1019.0 mb 0.00 in0.0 mm 0.00 in0.0 mm 0.00 in0.0 mm
03:20 PM 59.0°F15.0°C 49.6°F9.8°C 71% 3.9 mph E6.3 kmh E 8.3 mph13.4 kmh 30.10 in1019.3 mb 0.00 in0.0 mm 0.00 in0.0 mm 0.00 in0.0 mm
03:25 PM 59.0°F15.0°C 50.0°F10.0°C 72% 3.4 mph E5.5 kmh E 7.6 mph12.2 kmh 30.10 in1019.3 mb 0.00 in0.0 mm 0.00 in0.0 mm 0.00 in0.0 mm
03:30 PM 59.2°F15.1°C 50.2°F10.1°C 72% 3.1 mph ENE5.0 kmh ENE 6.9 mph11.1 kmh 30.10 in1019.3 mb 0.00 in0.0 mm 0.00 in0.0 mm 0.00 in0.0 mm
03:35 PM 59.2°F15.1°C 49.8°F9.9°C 71% 3.3 mph ENE5.3 kmh ENE 6.9 mph11.1 kmh 30.11 in1019.6 mb 0.00 in0.0 mm 0.00 in0.0 mm 0.00 in0.0 mm
03:40 PM 59.2°F15.1°C 50.2°F10.1°C 72% 4.0 mph NE6.4 kmh NE 7.6 mph12.2 kmh 30.11 in1019.6 mb 0.00 in0.0 mm 0.00 in0.0 mm 0.00 in0.0 mm
03:45 PM 59.0°F15.0°C 49.6°F9.8°C 71% 4.0 mph ENE6.4 kmh ENE 7.6 mph12.2 kmh 30.11 in1019.6 mb 0.00 in0.0 mm 0.00 in0.0 mm 0.00 in0.0 mm
03:50 PM 59.0°F15.0°C 50.0°F10.0°C 72% 3.9 mph E6.3 kmh E 7.6 mph12.2 kmh 30.11 in1019.6 mb 0.00 in0.0 mm 0.00 in0.0 mm 0.00 in0.0 mm
03:55 PM 58.8°F14.9°C 49.8°F9.9°C 72% 3.6 mph ENE5.8 kmh ENE 7.6 mph12.2 kmh 30.11 in1019.6 mb 0.00 in0.0 mm 0.00 in0.0 mm 0.00 in0.0 mm
04:00 PM 58.8°F14.9°C 50.2°F10.1°C 73% 3.2 mph ENE5.1 kmh ENE 6.9 mph11.1 kmh 30.11 in1019.6 mb 0.00 in0.0 mm 0.00 in0.0 mm 0.00 in0.0 mm
04:05 PM 58.8°F14.9°C 50.2°F10.1°C 73% 2.8 mph ENE4.5 kmh ENE 6.0 mph9.7 kmh 30.11 in1019.6 mb 0.00 in0.0 mm 0.00 in0.0 mm 0.00 in0.0 mm
04:10 PM 58.6°F14.8°C 50.8°F10.4°C 75% 2.9 mph ENE4.7 kmh ENE 6.0 mph9.7 kmh 30.11 in1019.6 mb 0.00 in0.0 mm 0.00 in0.0 mm 0.00 in0.0 mm
04:15 PM 58.5°F14.7°C 50.6°F10.3°C 75% 2.6 mph NE4.2 kmh NE 6.0 mph9.7 kmh 30.11 in1019.6 mb 0.00 in0.0 mm 0.00 in0.0 mm 0.00 in0.0 mm
04:20 PM 58.5°F14.7°C 50.6°F10.3°C 75% 2.1 mph E3.4 kmh E 5.4 mph8.7 kmh 30.11 in1019.6 mb 0.00 in0.0 mm 0.00 in0.0 mm 0.00 in0.0 mm
04:25 PM 58.3°F14.6°C 50.4°F10.2°C 75% 2.0 mph E3.2 kmh E 4.5 mph7.2 kmh 30.11 in1019.6 mb 0.00 in0.0 mm 0.00 in0.0 mm 0.00 in0.0 mm
04:30 PM 58.1°F14.5°C 50.2°F10.1°C 75% 1.5 mph E2.4 kmh E 4.5 mph7.2 kmh 30.11 in1019.6 mb 0.00 in0.0 mm 0.00 in0.0 mm 0.00 in0.0 mm
04:35 PM 57.9°F14.4°C 50.1°F10.1°C 75% 1.3 mph E2.1 kmh E 3.8 mph6.1 kmh 30.11 in1019.6 mb 0.00 in0.0 mm 0.00 in0.0 mm 0.00 in0.0 mm
04:40 PM 57.7°F14.3°C 50.2°F10.1°C 76% 0.9 mph E1.4 kmh E 3.8 mph6.1 kmh 30.11 in1019.6 mb 0.00 in0.0 mm 0.00 in0.0 mm 0.00 in0.0 mm
04:45 PM 57.6°F14.2°C 50.1°F10.1°C 76% 0.1 mph SE0.2 kmh SE 2.2 mph3.5 kmh 30.11 in1019.6 mb 0.00 in0.0 mm 0.00 in0.0 mm 0.00 in0.0 mm
04:50 PM 57.4°F14.1°C 50.2°F10.1°C 77% Calm Calm 0.7 mph1.1 kmh 30.12 in1020.0 mb 0.00 in0.0 mm 0.00 in0.0 mm 0.00 in0.0 mm
04:55 PM 57.0°F13.9°C 50.2°F10.1°C 78% Calm Calm 0.7 mph1.1 kmh 30.12 in1020.0 mb 0.00 in0.0 mm 0.00 in0.0 mm 0.00 in0.0 mm
05:00 PM 57.0°F13.9°C 49.9°F9.9°C 77% Calm Calm -- 30.12 in1020.0 mb 0.00 in0.0 mm 0.00 in0.0 mm 0.00 in0.0 mm
05:05 PM 57.2°F14.0°C 50.1°F10.1°C 77% Calm Calm -- 30.12 in1020.0 mb 0.00 in0.0 mm 0.00 in0.0 mm 0.00 in0.0 mm
05:10 PM 56.7°F13.7°C 49.5°F9.7°C 77% 0.1 mph WNW0.2 kmh WNW 2.2 mph3.5 kmh 30.12 in1020.0 mb 0.00 in0.0 mm 0.00 in0.0 mm 0.00 in0.0 mm
05:15 PM 55.9°F13.3°C 49.5°F9.7°C 79% 0.2 mph W0.3 kmh W 2.2 mph3.5 kmh 30.12 in1020.0 mb 0.00 in0.0 mm 0.00 in0.0 mm 0.00 in0.0 mm
05:20 PM 55.4°F13.0°C 49.3°F9.6°C 80% 0.2 mph W0.3 kmh W 2.2 mph3.5 kmh 30.12 in1020.0 mb 0.00 in0.0 mm 0.00 in0.0 mm 0.00 in0.0 mm
05:25 PM 55.2°F12.9°C 49.5°F9.7°C 81% 0.4 mph W0.6 kmh W 2.2 mph3.5 kmh 30.13 in1020.3 mb 0.00 in0.0 mm 0.00 in0.0 mm 0.00 in0.0 mm
05:30 PM 55.4°F13.0°C 50.0°F10.0°C 82% 0.5 mph WSW0.8 kmh WSW 2.2 mph3.5 kmh 30.13 in1020.3 mb 0.00 in0.0 mm 0.00 in0.0 mm 0.00 in0.0 mm
05:35 PM 55.2°F12.9°C 49.8°F9.9°C 82% 0.5 mph SW0.8 kmh SW 2.2 mph3.5 kmh 30.13 in1020.3 mb 0.00 in0.0 mm 0.00 in0.0 mm 0.00 in0.0 mm
05:40 PM 54.7°F12.6°C 49.6°F9.8°C 83% 1.3 mph SW2.1 kmh SW 3.8 mph6.1 kmh 30.13 in1020.3 mb 0.00 in0.0 mm 0.00 in0.0 mm 0.00 in0.0 mm
05:45 PM 54.1°F12.3°C 49.7°F9.8°C 85% 1.4 mph SW2.3 kmh SW 3.8 mph6.1 kmh 30.13 in1020.3 mb 0.00 in0.0 mm 0.00 in0.0 mm 0.00 in0.0 mm
05:50 PM 53.8°F12.1°C 49.7°F9.8°C 86% 0.7 mph SW1.1 kmh SW 3.1 mph5.0 kmh 30.14 in1020.7 mb 0.00 in0.0 mm 0.00 in0.0 mm 0.00 in0.0 mm
05:55 PM 53.6°F12.0°C 50.1°F10.1°C 88% 1.3 mph SW2.1 kmh SW 3.8 mph6.1 kmh 30.13 in1020.3 mb 0.00 in0.0 mm 0.00 in0.0 mm 0.00 in0.0 mm
06:00 PM 53.4°F11.9°C 50.0°F10.0°C 88% 2.0 mph WSW3.2 kmh WSW 4.5 mph7.2 kmh 30.14 in1020.7 mb 0.00 in0.0 mm 0.00 in0.0 mm 0.00 in0.0 mm
06:05 PM 53.4°F11.9°C 50.3°F10.2°C 89% 1.7 mph W2.7 kmh W 4.5 mph7.2 kmh 30.13 in1020.3 mb 0.00 in0.0 mm 0.00 in0.0 mm 0.00 in0.0 mm
06:10 PM 53.4°F11.9°C 50.3°F10.2°C 89% 1.4 mph WSW2.3 kmh WSW 3.8 mph6.1 kmh 30.14 in1020.7 mb 0.00 in0.0 mm 0.00 in0.0 mm 0.00 in0.0 mm
06:15 PM 52.9°F11.6°C 49.7°F9.8°C 89% 1.5 mph WSW2.4 kmh WSW 3.8 mph6.1 kmh 30.14 in1020.7 mb 0.00 in0.0 mm 0.00 in0.0 mm 0.00 in0.0 mm
06:20 PM 52.5°F11.4°C 49.4°F9.7°C 89% 1.1 mph WSW1.8 kmh WSW 3.8 mph6.1 kmh 30.14 in1020.7 mb 0.00 in0.0 mm 0.00 in0.0 mm 0.00 in0.0 mm
06:25 PM 52.5°F11.4°C 49.4°F9.7°C 89% 0.5 mph W0.8 kmh W 3.1 mph5.0 kmh 30.14 in1020.7 mb 0.00 in0.0 mm 0.00 in0.0 mm 0.00 in0.0 mm
06:30 PM 52.3°F11.3°C 49.2°F9.6°C 89% 1.0 mph W1.6 kmh W 3.1 mph5.0 kmh 30.15 in1021.0 mb 0.00 in0.0 mm 0.00 in0.0 mm 0.00 in0.0 mm
06:35 PM 52.5°F11.4°C 49.1°F9.5°C 88% 1.3 mph W2.1 kmh W 3.1 mph5.0 kmh 30.15 in1021.0 mb 0.00 in0.0 mm 0.00 in0.0 mm 0.00 in0.0 mm
06:40 PM 52.5°F11.4°C 49.1°F9.5°C 88% 0.9 mph W1.4 kmh W 3.1 mph5.0 kmh 30.15 in1021.0 mb 0.00 in0.0 mm 0.00 in0.0 mm 0.00 in0.0 mm
06:45 PM 52.5°F11.4°C 48.8°F9.3°C 87% 0.7 mph W1.1 kmh W 3.1 mph5.0 kmh 30.16 in1021.3 mb 0.00 in0.0 mm 0.00 in0.0 mm 0.00 in0.0 mm
06:50 PM 52.3°F11.3°C 48.6°F9.2°C 87% 0.8 mph W1.3 kmh W 2.2 mph3.5 kmh 30.16 in1021.3 mb 0.00 in0.0 mm 0.00 in0.0 mm 0.00 in0.0 mm
06:55 PM 52.2°F11.2°C 48.7°F9.3°C 88% 0.7 mph W1.1 kmh W 3.1 mph5.0 kmh 30.16 in1021.3 mb 0.00 in0.0 mm 0.00 in0.0 mm 0.00 in0.0 mm
07:00 PM 52.0°F11.1°C 48.5°F9.2°C 88% 0.4 mph WSW0.6 kmh WSW 3.1 mph5.0 kmh 30.16 in1021.3 mb 0.00 in0.0 mm 0.00 in0.0 mm 0.00 in0.0 mm
07:05 PM 51.8°F11.0°C 48.7°F9.3°C 89% 0.3 mph WSW0.5 kmh WSW 3.8 mph6.1 kmh 30.16 in1021.3 mb 0.00 in0.0 mm 0.00 in0.0 mm 0.00 in0.0 mm
07:10 PM 51.8°F11.0°C 48.7°F9.3°C 89% 0.3 mph SSW0.5 kmh SSW 3.8 mph6.1 kmh 30.16 in1021.3 mb 0.00 in0.0 mm 0.00 in0.0 mm 0.00 in0.0 mm
07:15 PM 51.4°F10.8°C 48.3°F9.1°C 89% 0.3 mph SSE0.5 kmh SSE 1.6 mph2.6 kmh 30.16 in1021.3 mb 0.00 in0.0 mm 0.00 in0.0 mm 0.00 in0.0 mm
07:20 PM 51.3°F10.7°C 48.4°F9.1°C 90% 0.1 mph SE0.2 kmh SE 1.6 mph2.6 kmh 30.16 in1021.3 mb 0.00 in0.0 mm 0.00 in0.0 mm 0.00 in0.0 mm
07:25 PM 51.1°F10.6°C 48.5°F9.2°C 91% Calm Calm 0.7 mph1.1 kmh 30.16 in1021.3 mb 0.00 in0.0 mm 0.00 in0.0 mm 0.00 in0.0 mm
07:30 PM 50.7°F10.4°C 47.9°F8.8°C 90% 0.4 mph SE0.6 kmh SE 3.1 mph5.0 kmh 30.16 in1021.3 mb 0.00 in0.0 mm 0.00 in0.0 mm 0.00 in0.0 mm
07:35 PM 49.8°F9.9°C 47.3°F8.5°C 91% 0.5 mph SE0.8 kmh SE 3.1 mph5.0 kmh 30.16 in1021.3 mb 0.00 in0.0 mm 0.00 in0.0 mm 0.00 in0.0 mm
07:40 PM 49.6°F9.8°C 47.7°F8.7°C 93% 0.1 mph E0.2 kmh E 2.2 mph3.5 kmh 30.16 in1021.3 mb 0.00 in0.0 mm 0.00 in0.0 mm 0.00 in0.0 mm
07:45 PM 48.9°F9.4°C 47.0°F8.3°C 93% 0.4 mph ENE0.6 kmh ENE 2.2 mph3.5 kmh 30.16 in1021.3 mb 0.00 in0.0 mm 0.00 in0.0 mm 0.00 in0.0 mm
07:50 PM 48.6°F9.2°C 46.9°F8.3°C 94% 0.5 mph E0.8 kmh E 2.2 mph3.5 kmh 30.16 in1021.3 mb 0.00 in0.0 mm 0.00 in0.0 mm 0.00 in0.0 mm
07:55 PM 48.0°F8.9°C 46.7°F8.2°C 95% 0.2 mph ESE0.3 kmh ESE 2.2 mph3.5 kmh 30.16 in1021.3 mb 0.00 in0.0 mm 0.00 in0.0 mm 0.00 in0.0 mm
08:00 PM 47.5°F8.6°C 46.1°F7.8°C 95% 0.1 mph ENE0.2 kmh ENE 1.6 mph2.6 kmh 30.17 in1021.7 mb 0.00 in0.0 mm 0.00 in0.0 mm 0.00 in0.0 mm
08:05 PM 47.5°F8.6°C 46.1°F7.8°C 95% 0.4 mph NE0.6 kmh NE 2.2 mph3.5 kmh 30.16 in1021.3 mb 0.00 in0.0 mm 0.00 in0.0 mm 0.00 in0.0 mm
08:10 PM 47.1°F8.4°C 45.8°F7.7°C 95% 0.3 mph NE0.5 kmh NE 2.2 mph3.5 kmh 30.17 in1021.7 mb 0.00 in0.0 mm 0.00 in0.0 mm 0.00 in0.0 mm
08:15 PM 47.1°F8.4°C 45.8°F7.7°C 95% 0.1 mph WSW0.2 kmh WSW 1.6 mph2.6 kmh 30.17 in1021.7 mb 0.00 in0.0 mm 0.00 in0.0 mm 0.00 in0.0 mm
08:20 PM 47.3°F8.5°C 45.9°F7.7°C 95% 0.2 mph SW0.3 kmh SW 2.2 mph3.5 kmh 30.17 in1021.7 mb 0.00 in0.0 mm 0.00 in0.0 mm 0.00 in0.0 mm
08:25 PM 47.5°F8.6°C 46.1°F7.8°C 95% 0.2 mph SW0.3 kmh SW 2.2 mph3.5 kmh 30.18 in1022.0 mb 0.00 in0.0 mm 0.00 in0.0 mm 0.00 in0.0 mm
08:30 PM 47.3°F8.5°C 45.9°F7.7°C 95% 0.1 mph WNW0.2 kmh WNW 2.2 mph3.5 kmh 30.17 in1021.7 mb 0.00 in0.0 mm 0.00 in0.0 mm 0.00 in0.0 mm
08:35 PM 47.5°F8.6°C 46.1°F7.8°C 95% Calm Calm 2.2 mph3.5 kmh 30.17 in1021.7 mb 0.00 in0.0 mm 0.00 in0.0 mm 0.00 in0.0 mm
08:40 PM 47.7°F8.7°C 46.3°F7.9°C 95% Calm Calm 2.2 mph3.5 kmh 30.18 in1022.0 mb 0.00 in0.0 mm 0.00 in0.0 mm 0.00 in0.0 mm
08:45 PM 47.7°F8.7°C 46.3°F7.9°C 95% 0.1 mph SSW0.2 kmh SSW 2.2 mph3.5 kmh 30.18 in1022.0 mb 0.00 in0.0 mm 0.00 in0.0 mm 0.00 in0.0 mm
08:50 PM 47.7°F8.7°C 46.3°F7.9°C 95% 0.1 mph SSE0.2 kmh SSE 1.6 mph2.6 kmh 30.18 in1022.0 mb 0.00 in0.0 mm 0.00 in0.0 mm 0.00 in0.0 mm
08:55 PM 47.1°F8.4°C 45.8°F7.7°C 95% 0.1 mph S0.2 kmh S 1.6 mph2.6 kmh 30.18 in1022.0 mb 0.00 in0.0 mm 0.00 in0.0 mm 0.00 in0.0 mm
09:00 PM 46.9°F8.3°C 45.6°F7.6°C 95% 0.3 mph WNW0.5 kmh WNW 3.1 mph5.0 kmh 30.18 in1022.0 mb 0.00 in0.0 mm 0.00 in0.0 mm 0.00 in0.0 mm
09:05 PM 46.4°F8.0°C 45.0°F7.2°C 95% 0.6 mph NW1.0 kmh NW 3.1 mph5.0 kmh 30.18 in1022.0 mb 0.00 in0.0 mm 0.00 in0.0 mm 0.00 in0.0 mm
09:10 PM 46.4°F8.0°C 45.0°F7.2°C 95% 0.5 mph NW0.8 kmh NW 3.1 mph5.0 kmh 30.18 in1022.0 mb 0.00 in0.0 mm 0.00 in0.0 mm 0.00 in0.0 mm
09:15 PM 46.0°F7.8°C 44.7°F7.1°C 95% 0.2 mph NW0.3 kmh NW 2.2 mph3.5 kmh 30.19 in1022.4 mb 0.00 in0.0 mm 0.00 in0.0 mm 0.00 in0.0 mm
09:20 PM 46.0°F7.8°C 44.7°F7.1°C 95% 0.5 mph SW0.8 kmh SW 3.8 mph6.1 kmh 30.19 in1022.4 mb 0.00 in0.0 mm 0.00 in0.0 mm 0.00 in0.0 mm
09:25 PM 46.2°F7.9°C 44.9°F7.2°C 95% 0.9 mph SW1.4 kmh SW 3.8 mph6.1 kmh 30.19 in1022.4 mb 0.00 in0.0 mm 0.00 in0.0 mm 0.00 in0.0 mm
09:30 PM 46.6°F8.1°C 45.2°F7.3°C 95% 1.3 mph SW2.1 kmh SW 3.1 mph5.0 kmh 30.19 in1022.4 mb 0.00 in0.0 mm 0.00 in0.0 mm 0.00 in0.0 mm
09:35 PM 46.6°F8.1°C 45.2°F7.3°C 95% 1.0 mph SSW1.6 kmh SSW 3.1 mph5.0 kmh 30.19 in1022.4 mb 0.00 in0.0 mm 0.00 in0.0 mm 0.00 in0.0 mm
09:40 PM 45.9°F7.7°C 44.5°F6.9°C 95% 0.2 mph SE0.3 kmh SE 3.1 mph5.0 kmh 30.19 in1022.4 mb 0.00 in0.0 mm 0.00 in0.0 mm 0.00 in0.0 mm
09:45 PM 45.5°F7.5°C 44.2°F6.8°C 95% Calm Calm 1.6 mph2.6 kmh 30.19 in1022.4 mb 0.00 in0.0 mm 0.00 in0.0 mm 0.00 in0.0 mm
09:50 PM 45.3°F7.4°C 44.0°F6.7°C 95% Calm Calm -- 30.19 in1022.4 mb 0.00 in0.0 mm 0.00 in0.0 mm 0.00 in0.0 mm
09:55 PM 45.0°F7.2°C 43.6°F6.4°C 95% Calm Calm 0.7 mph1.1 kmh 30.19 in1022.4 mb 0.00 in0.0 mm 0.00 in0.0 mm 0.00 in0.0 mm
10:00 PM 44.8°F7.1°C 43.4°F6.3°C 95% Calm Calm 1.6 mph2.6 kmh 30.19 in1022.4 mb 0.00 in0.0 mm 0.00 in0.0 mm 0.00 in0.0 mm
10:05 PM 45.0°F7.2°C 43.6°F6.4°C 95% 0.1 mph NW0.2 kmh NW 1.6 mph2.6 kmh 30.19 in1022.4 mb 0.00 in0.0 mm 0.00 in0.0 mm 0.00 in0.0 mm
10:10 PM 45.3°F7.4°C 44.0°F6.7°C 95% 0.1 mph NW0.2 kmh NW 1.6 mph2.6 kmh 30.19 in1022.4 mb 0.00 in0.0 mm 0.00 in0.0 mm 0.00 in0.0 mm
10:15 PM 45.1°F7.3°C 43.8°F6.6°C 95% Calm Calm 1.6 mph2.6 kmh 30.19 in1022.4 mb 0.00 in0.0 mm 0.00 in0.0 mm 0.00 in0.0 mm
10:20 PM 45.0°F7.2°C 43.6°F6.4°C 95% Calm Calm 1.6 mph2.6 kmh 30.18 in1022.0 mb 0.00 in0.0 mm 0.00 in0.0 mm 0.00 in0.0 mm
10:25 PM 45.1°F7.3°C 43.8°F6.6°C 95% 0.2 mph E0.3 kmh E 2.2 mph3.5 kmh 30.18 in1022.0 mb 0.00 in0.0 mm 0.00 in0.0 mm 0.00 in0.0 mm
10:30 PM 45.1°F7.3°C 43.8°F6.6°C 95% 0.4 mph E0.6 kmh E 2.2 mph3.5 kmh 30.19 in1022.4 mb 0.00 in0.0 mm 0.00 in0.0 mm 0.00 in0.0 mm
10:35 PM 45.1°F7.3°C 43.8°F6.6°C 95% 0.8 mph ESE1.3 kmh ESE 3.1 mph5.0 kmh 30.19 in1022.4 mb 0.00 in0.0 mm 0.00 in0.0 mm 0.00 in0.0 mm
10:40 PM 45.1°F7.3°C 43.8°F6.6°C 95% 0.7 mph SE1.1 kmh SE 3.1 mph5.0 kmh 30.19 in1022.4 mb 0.00 in0.0 mm 0.00 in0.0 mm 0.00 in0.0 mm
10:45 PM 45.0°F7.2°C 43.6°F6.4°C 95% 0.1 mph SSE0.2 kmh SSE 1.6 mph2.6 kmh 30.20 in1022.7 mb 0.00 in0.0 mm 0.00 in0.0 mm 0.00 in0.0 mm
10:50 PM 45.0°F7.2°C 43.6°F6.4°C 95% Calm Calm -- 30.20 in1022.7 mb 0.00 in0.0 mm 0.00 in0.0 mm 0.00 in0.0 mm
10:55 PM 44.4°F6.9°C 43.1°F6.2°C 95% Calm Calm 1.6 mph2.6 kmh 30.20 in1022.7 mb 0.00 in0.0 mm 0.00 in0.0 mm 0.00 in0.0 mm
11:00 PM 44.4°F6.9°C 43.1°F6.2°C 95% Calm Calm 1.6 mph2.6 kmh 30.19 in1022.4 mb 0.00 in0.0 mm 0.00 in0.0 mm 0.00 in0.0 mm
11:05 PM 44.2°F6.8°C 42.9°F6.1°C 95% Calm Calm 1.6 mph2.6 kmh 30.20 in1022.7 mb 0.00 in0.0 mm 0.00 in0.0 mm 0.00 in0.0 mm
11:10 PM 44.4°F6.9°C 43.1°F6.2°C 95% Calm Calm -- 30.20 in1022.7 mb 0.00 in0.0 mm 0.00 in0.0 mm 0.00 in0.0 mm
11:15 PM 44.2°F6.8°C 42.9°F6.1°C 95% Calm Calm -- 30.20 in1022.7 mb 0.00 in0.0 mm 0.00 in0.0 mm 0.00 in0.0 mm
11:20 PM 44.2°F6.8°C 42.9°F6.1°C 95% Calm Calm -- 30.20 in1022.7 mb 0.00 in0.0 mm 0.00 in0.0 mm 0.00 in0.0 mm
11:25 PM 44.1°F6.7°C 42.7°F5.9°C 95% Calm Calm -- 30.20 in1022.7 mb 0.00 in0.0 mm 0.00 in0.0 mm 0.00 in0.0 mm
11:30 PM 44.1°F6.7°C 42.7°F5.9°C 95% Calm Calm -- 30.20 in1022.7 mb 0.00 in0.0 mm 0.00 in0.0 mm 0.00 in0.0 mm
11:35 PM 44.2°F6.8°C 42.9°F6.1°C 95% Calm Calm -- 30.20 in1022.7 mb 0.00 in0.0 mm 0.00 in0.0 mm 0.00 in0.0 mm
11:40 PM 44.2°F6.8°C 42.9°F6.1°C 95% Calm Calm -- 30.20 in1022.7 mb 0.00 in0.0 mm 0.00 in0.0 mm 0.00 in0.0 mm
11:45 PM 44.2°F6.8°C 42.9°F6.1°C 95% Calm Calm -- 30.20 in1022.7 mb 0.00 in0.0 mm 0.00 in0.0 mm 0.00 in0.0 mm
11:50 PM 44.2°F6.8°C 42.9°F6.1°C 95% Calm Calm -- 30.20 in1022.7 mb 0.00 in0.0 mm 0.00 in0.0 mm 0.00 in0.0 mm
11:55 PM 44.4°F6.9°C 43.1°F6.2°C 95% Calm Calm -- 30.20 in1022.7 mb 0.00 in0.0 mm 0.00 in0.0 mm 0.00 in0.0 mm